sensor_id;sensor_type;location;lat;lon;timestamp;pressure;altitude;pressure_sealevel;temperature;humidity
21102;BME280;10709;49.006;12.100;2023-02-23T00:01:40;49022.25;;;-146.00;98.24
21102;BME280;10709;49.006;12.100;2023-02-23T00:04:07;49000.72;;;-146.00;98.44
21102;BME280;10709;49.006;12.100;2023-02-23T00:06:35;49014.41;;;-146.00;98.49
21102;BME280;10709;49.006;12.100;2023-02-23T00:09:03;49016.38;;;-146.00;98.70
21102;BME280;10709;49.006;12.100;2023-02-23T00:11:40;48992.88;;;-146.00;98.55
21102;BME280;10709;49.006;12.100;2023-02-23T00:14:07;49020.31;;;-146.00;98.47
21102;BME280;10709;49.006;12.100;2023-02-23T00:16:34;49043.81;;;-146.00;98.38
21102;BME280;10709;49.006;12.100;2023-02-23T00:19:02;49004.63;;;-146.00;98.47
21102;BME280;10709;49.006;12.100;2023-02-23T00:21:33;49016.38;;;-146.00;98.60
21102;BME280;10709;49.006;12.100;2023-02-23T00:24:07;49028.13;;;-146.00;98.60
21102;BME280;10709;49.006;12.100;2023-02-23T00:26:37;49024.22;;;-146.00;98.40
21102;BME280;10709;49.006;12.100;2023-02-23T00:29:24;49006.59;;;-146.00;98.25
21102;BME280;10709;49.006;12.100;2023-02-23T00:31:51;49004.63;;;-146.00;98.21
21102;BME280;10709;49.006;12.100;2023-02-23T00:34:19;49008.53;;;-146.00;98.54
21102;BME280;10709;49.006;12.100;2023-02-23T00:36:50;49016.38;;;-146.00;98.47
21102;BME280;10709;49.006;12.100;2023-02-23T00:39:17;49020.31;;;-146.00;98.56
21102;BME280;10709;49.006;12.100;2023-02-23T00:41:48;49016.38;;;-146.00;99.04
21102;BME280;10709;49.006;12.100;2023-02-23T00:44:15;49012.47;;;-146.00;99.51
21102;BME280;10709;49.006;12.100;2023-02-23T00:46:43;49008.53;;;-146.00;99.56
21102;BME280;10709;49.006;12.100;2023-02-23T00:49:12;49008.53;;;-146.00;99.37
21102;BME280;10709;49.006;12.100;2023-02-23T00:51:39;49008.53;;;-146.00;99.36
21102;BME280;10709;49.006;12.100;2023-02-23T00:54:06;48996.78;;;-146.00;99.34
21102;BME280;10709;49.006;12.100;2023-02-23T00:56:33;49016.38;;;-146.00;99.49
21102;BME280;10709;49.006;12.100;2023-02-23T00:59:00;49020.31;;;-146.00;99.70
21102;BME280;10709;49.006;12.100;2023-02-23T01:01:27;49006.59;;;-146.00;100.00
21102;BME280;10709;49.006;12.100;2023-02-23T01:03:53;49004.63;;;-146.00;100.00
21102;BME280;10709;49.006;12.100;2023-02-23T01:06:20;49020.31;;;-146.00;100.00
21102;BME280;10709;49.006;12.100;2023-02-23T01:08:48;49016.38;;;-146.00;100.00
21102;BME280;10709;49.006;12.100;2023-02-23T01:11:18;49016.38;;;-146.00;100.00
21102;BME280;10709;49.006;12.100;2023-02-23T01:13:51;49016.38;;;-146.00;100.00
21102;BME280;10709;49.006;12.100;2023-02-23T01:16:20;49010.50;;;-146.00;100.00
21102;BME280;10709;49.006;12.100;2023-02-23T01:18:48;49012.47;;;-146.00;100.00
21102;BME280;10709;49.006;12.100;2023-02-23T01:21:20;48996.78;;;-146.00;100.00
21102;BME280;10709;49.006;12.100;2023-02-23T01:23:49;49012.47;;;-146.00;100.00
21102;BME280;10709;49.006;12.100;2023-02-23T01:26:22;49004.63;;;-146.00;100.00
21102;BME280;10709;49.006;12.100;2023-02-23T01:28:54;49004.63;;;-146.00;100.00
21102;BME280;10709;49.006;12.100;2023-02-23T01:31:22;48994.84;;;-146.00;100.00
21102;BME280;10709;49.006;12.100;2023-02-23T01:33:54;49018.34;;;-146.00;100.00
21102;BME280;10709;49.006;12.100;2023-02-23T01:36:21;49024.22;;;-146.00;100.00
21102;BME280;10709;49.006;12.100;2023-02-23T01:38:48;49010.50;;;-146.00;100.00
21102;BME280;10709;49.006;12.100;2023-02-23T01:41:15;49012.47;;;-146.00;100.00
21102;BME280;10709;49.006;12.100;2023-02-23T01:43:59;49012.47;;;-146.00;100.00
21102;BME280;10709;49.006;12.100;2023-02-23T01:46:26;48992.88;;;-146.00;100.00
21102;BME280;10709;49.006;12.100;2023-02-23T01:48:54;49004.63;;;-146.00;100.00
21102;BME280;10709;49.006;12.100;2023-02-23T01:51:25;49039.88;;;-146.00;100.00
21102;BME280;10709;49.006;12.100;2023-02-23T01:53:59;48996.78;;;-146.00;99.70
21102;BME280;10709;49.006;12.100;2023-02-23T01:56:35;49016.38;;;-146.00;100.00
21102;BME280;10709;49.006;12.100;2023-02-23T01:59:10;49014.41;;;-146.00;99.86
21102;BME280;10709;49.006;12.100;2023-02-23T02:01:38;49020.31;;;-146.00;99.88
21102;BME280;10709;49.006;12.100;2023-02-23T02:04:08;49037.94;;;-146.00;99.78
21102;BME280;10709;49.006;12.100;2023-02-23T02:06:43;49012.47;;;-146.00;99.58
21102;BME280;10709;49.006;12.100;2023-02-23T02:09:13;49020.31;;;-146.00;99.11
21102;BME280;10709;49.006;12.100;2023-02-23T02:11:45;48992.88;;;-146.00;99.54
21102;BME280;10709;49.006;12.100;2023-02-23T02:14:16;49012.47;;;-146.00;99.67
21102;BME280;10709;49.006;12.100;2023-02-23T02:20:12;49004.63;;;-146.00;99.81
21102;BME280;10709;49.006;12.100;2023-02-23T02:22:56;49014.41;;;-146.00;99.69
21102;BME280;10709;49.006;12.100;2023-02-23T02:25:43;49020.31;;;-146.00;99.56
21102;BME280;10709;49.006;12.100;2023-02-23T02:28:29;48996.78;;;-146.00;99.28
21102;BME280;10709;49.006;12.100;2023-02-23T02:31:21;49006.59;;;-146.00;98.98
21102;BME280;10709;49.006;12.100;2023-02-23T02:42:49;48988.94;;;-146.00;100.00
21102;BME280;10709;49.006;12.100;2023-02-23T02:45:36;49022.25;;;-146.00;100.00
21102;BME280;10709;49.006;12.100;2023-02-23T02:48:28;49020.31;;;-146.00;100.00
21102;BME280;10709;49.006;12.100;2023-02-23T02:51:05;49018.34;;;-146.00;100.00
21102;BME280;10709;49.006;12.100;2023-02-23T02:53:42;49012.47;;;-146.00;100.00
21102;BME280;10709;49.006;12.100;2023-02-23T02:56:14;49028.13;;;-146.00;99.65
21102;BME280;10709;49.006;12.100;2023-02-23T02:58:46;49024.22;;;-146.00;99.90
21102;BME280;10709;49.006;12.100;2023-02-23T03:01:16;49016.38;;;-146.00;100.00
21102;BME280;10709;49.006;12.100;2023-02-23T03:04:23;48992.88;;;-146.00;100.00
21102;BME280;10709;49.006;12.100;2023-02-23T03:07:32;48988.94;;;-146.00;100.00
21102;BME280;10709;49.006;12.100;2023-02-23T03:13:17;49020.31;;;-146.00;100.00
21102;BME280;10709;49.006;12.100;2023-02-23T03:16:15;49008.53;;;-146.00;100.00
21102;BME280;10709;49.006;12.100;2023-02-23T03:19:13;49016.38;;;-146.00;99.49
21102;BME280;10709;49.006;12.100;2023-02-23T03:22:17;49008.53;;;-146.00;99.86
21102;BME280;10709;49.006;12.100;2023-02-23T03:25:10;49012.47;;;-146.00;99.54
21102;BME280;10709;49.006;12.100;2023-02-23T03:28:14;49034.00;;;-146.00;100.00
21102;BME280;10709;49.006;12.100;2023-02-23T03:34:16;49008.53;;;-146.00;99.58
21102;BME280;10709;49.006;12.100;2023-02-23T03:37:13;49026.19;;;-146.00;99.81
21102;BME280;10709;49.006;12.100;2023-02-23T03:40:08;49018.34;;;-146.00;99.43
21102;BME280;10709;49.006;12.100;2023-02-23T03:42:58;49012.47;;;-146.00;99.39
21102;BME280;10709;49.006;12.100;2023-02-23T03:45:46;49016.38;;;-146.00;99.19
21102;BME280;10709;49.006;12.100;2023-02-23T03:48:33;49020.31;;;-146.00;98.92
21102;BME280;10709;49.006;12.100;2023-02-23T03:51:21;49020.31;;;-146.00;98.98
21102;BME280;10709;49.006;12.100;2023-02-23T03:54:17;49018.34;;;-146.00;99.23
21102;BME280;10709;49.006;12.100;2023-02-23T03:57:07;49032.06;;;-146.00;99.30
21102;BME280;10709;49.006;12.100;2023-02-23T03:59:57;49024.22;;;-146.00;99.92
21102;BME280;10709;49.006;12.100;2023-02-23T04:02:46;49026.19;;;-146.00;99.77
21102;BME280;10709;49.006;12.100;2023-02-23T04:05:35;49010.50;;;-146.00;99.98
21102;BME280;10709;49.006;12.100;2023-02-23T04:08:27;49016.38;;;-146.00;99.82
21102;BME280;10709;49.006;12.100;2023-02-23T04:11:20;49004.63;;;-146.00;99.72
21102;BME280;10709;49.006;12.100;2023-02-23T04:14:15;48992.88;;;-146.00;100.00
21102;BME280;10709;49.006;12.100;2023-02-23T04:16:44;49035.97;;;-146.00;99.82
21102;BME280;10709;49.006;12.100;2023-02-23T04:19:11;49024.22;;;-146.00;100.00
21102;BME280;10709;49.006;12.100;2023-02-23T04:21:37;49018.34;;;-146.00;99.75
21102;BME280;10709;49.006;12.100;2023-02-23T04:24:04;49004.63;;;-146.00;100.00
21102;BME280;10709;49.006;12.100;2023-02-23T04:26:30;49012.47;;;-146.00;100.00
21102;BME280;10709;49.006;12.100;2023-02-23T04:28:57;49024.22;;;-146.00;100.00
21102;BME280;10709;49.006;12.100;2023-02-23T04:31:23;49012.47;;;-146.00;100.00
21102;BME280;10709;49.006;12.100;2023-02-23T04:33:51;48992.88;;;-146.00;100.00
21102;BME280;10709;49.006;12.100;2023-02-23T04:36:18;49008.53;;;-146.00;100.00
21102;BME280;10709;49.006;12.100;2023-02-23T04:38:44;49008.53;;;-146.00;100.00
21102;BME280;10709;49.006;12.100;2023-02-23T04:41:10;49000.72;;;-146.00;100.00
21102;BME280;10709;49.006;12.100;2023-02-23T04:43:37;49016.38;;;-146.00;100.00
21102;BME280;10709;49.006;12.100;2023-02-23T04:46:03;49008.53;;;-146.00;100.00
21102;BME280;10709;49.006;12.100;2023-02-23T04:48:30;49024.22;;;-146.00;99.49
21102;BME280;10709;49.006;12.100;2023-02-23T04:50:56;49016.38;;;-146.00;100.00
21102;BME280;10709;49.006;12.100;2023-02-23T04:53:22;49024.22;;;-146.00;99.88
21102;BME280;10709;49.006;12.100;2023-02-23T04:55:49;49028.13;;;-146.00;99.47
21102;BME280;10709;49.006;12.100;2023-02-23T04:58:16;49012.47;;;-146.00;99.50
21102;BME280;10709;49.006;12.100;2023-02-23T05:00:43;49018.34;;;-146.00;99.60
21102;BME280;10709;49.006;12.100;2023-02-23T05:03:10;49008.53;;;-146.00;99.88
21102;BME280;10709;49.006;12.100;2023-02-23T05:05:37;49000.72;;;-146.00;99.64
21102;BME280;10709;49.006;12.100;2023-02-23T05:08:04;48996.78;;;-146.00;99.99
21102;BME280;10709;49.006;12.100;2023-02-23T05:10:31;49008.53;;;-146.00;99.90
21102;BME280;10709;49.006;12.100;2023-02-23T05:12:58;49024.22;;;-146.00;100.00
21102;BME280;10709;49.006;12.100;2023-02-23T05:15:24;49024.22;;;-146.00;100.00
21102;BME280;10709;49.006;12.100;2023-02-23T05:17:51;49006.59;;;-146.00;100.00
21102;BME280;10709;49.006;12.100;2023-02-23T05:20:17;48988.94;;;-146.00;100.00
21102;BME280;10709;49.006;12.100;2023-02-23T05:22:44;49016.38;;;-146.00;100.00
21102;BME280;10709;49.006;12.100;2023-02-23T05:25:10;49000.72;;;-146.00;100.00
21102;BME280;10709;49.006;12.100;2023-02-23T05:27:37;49014.41;;;-146.00;100.00
21102;BME280;10709;49.006;12.100;2023-02-23T05:30:06;49012.47;;;-146.00;100.00
21102;BME280;10709;49.006;12.100;2023-02-23T05:32:33;49012.47;;;-146.00;100.00
21102;BME280;10709;49.006;12.100;2023-02-23T05:35:00;49010.50;;;-146.00;100.00
21102;BME280;10709;49.006;12.100;2023-02-23T05:37:27;49008.53;;;-146.00;100.00
21102;BME280;10709;49.006;12.100;2023-02-23T05:39:54;49016.38;;;-146.00;100.00
21102;BME280;10709;49.006;12.100;2023-02-23T05:42:20;48998.75;;;-146.00;100.00
21102;BME280;10709;49.006;12.100;2023-02-23T05:44:47;49012.47;;;-146.00;100.00
21102;BME280;10709;49.006;12.100;2023-02-23T05:47:13;49016.38;;;-146.00;100.00
21102;BME280;10709;49.006;12.100;2023-02-23T05:49:40;48985.03;;;-146.00;100.00
21102;BME280;10709;49.006;12.100;2023-02-23T05:52:06;49004.63;;;-146.00;100.00
21102;BME280;10709;49.006;12.100;2023-02-23T05:54:33;49010.50;;;-146.00;100.00
21102;BME280;10709;49.006;12.100;2023-02-23T05:57:00;49020.31;;;-146.00;100.00
21102;BME280;10709;49.006;12.100;2023-02-23T05:59:27;49020.31;;;-146.00;100.00
21102;BME280;10709;49.006;12.100;2023-02-23T06:01:53;48988.94;;;-146.00;100.00
21102;BME280;10709;49.006;12.100;2023-02-23T06:04:20;49020.31;;;-146.00;100.00
21102;BME280;10709;49.006;12.100;2023-02-23T06:06:48;49024.22;;;-146.00;100.00
21102;BME280;10709;49.006;12.100;2023-02-23T06:09:15;48996.78;;;-146.00;100.00
21102;BME280;10709;49.006;12.100;2023-02-23T06:11:41;49012.47;;;-146.00;100.00
21102;BME280;10709;49.006;12.100;2023-02-23T06:14:08;48992.88;;;-146.00;100.00
21102;BME280;10709;49.006;12.100;2023-02-23T06:16:34;48992.88;;;-146.00;100.00
21102;BME280;10709;49.006;12.100;2023-02-23T06:19:01;49000.72;;;-146.00;100.00
21102;BME280;10709;49.006;12.100;2023-02-23T06:21:28;48994.84;;;-146.00;100.00
21102;BME280;10709;49.006;12.100;2023-02-23T06:23:54;49006.59;;;-146.00;100.00
21102;BME280;10709;49.006;12.100;2023-02-23T06:26:21;48992.88;;;-146.00;100.00
21102;BME280;10709;49.006;12.100;2023-02-23T06:28:47;49002.66;;;-146.00;100.00
21102;BME280;10709;49.006;12.100;2023-02-23T06:31:13;49000.72;;;-146.00;100.00
21102;BME280;10709;49.006;12.100;2023-02-23T06:33:40;49006.59;;;-146.00;100.00
21102;BME280;10709;49.006;12.100;2023-02-23T06:36:07;48992.88;;;-146.00;100.00
21102;BME280;10709;49.006;12.100;2023-02-23T06:38:33;48996.78;;;-146.00;100.00
21102;BME280;10709;49.006;12.100;2023-02-23T06:41:05;48996.78;;;-146.00;100.00
21102;BME280;10709;49.006;12.100;2023-02-23T06:43:32;49004.63;;;-146.00;100.00
21102;BME280;10709;49.006;12.100;2023-02-23T06:45:58;49000.72;;;-146.00;100.00
21102;BME280;10709;49.006;12.100;2023-02-23T06:48:25;48992.88;;;-146.00;100.00
21102;BME280;10709;49.006;12.100;2023-02-23T06:50:52;48996.78;;;-146.00;100.00
21102;BME280;10709;49.006;12.100;2023-02-23T06:53:18;49000.72;;;-146.00;100.00
21102;BME280;10709;49.006;12.100;2023-02-23T06:55:45;49004.63;;;-146.00;100.00
21102;BME280;10709;49.006;12.100;2023-02-23T06:58:12;48998.75;;;-146.00;100.00
21102;BME280;10709;49.006;12.100;2023-02-23T07:00:38;48996.78;;;-146.00;100.00
21102;BME280;10709;49.006;12.100;2023-02-23T07:03:08;49014.41;;;-146.00;100.00
21102;BME280;10709;49.006;12.100;2023-02-23T07:05:36;49008.53;;;-146.00;100.00
21102;BME280;10709;49.006;12.100;2023-02-23T07:08:02;48988.94;;;-146.00;100.00
21102;BME280;10709;49.006;12.100;2023-02-23T07:10:29;48977.19;;;-146.00;100.00
21102;BME280;10709;49.006;12.100;2023-02-23T07:12:55;48985.03;;;-146.00;100.00
21102;BME280;10709;49.006;12.100;2023-02-23T07:15:22;48996.78;;;-146.00;100.00
21102;BME280;10709;49.006;12.100;2023-02-23T07:17:49;49008.53;;;-146.00;100.00
21102;BME280;10709;49.006;12.100;2023-02-23T07:20:18;48996.78;;;-146.00;100.00
21102;BME280;10709;49.006;12.100;2023-02-23T07:22:44;48985.03;;;-146.00;100.00
21102;BME280;10709;49.006;12.100;2023-02-23T07:25:11;48977.19;;;-146.00;100.00
21102;BME280;10709;49.006;12.100;2023-02-23T07:27:39;48977.19;;;-146.00;100.00
21102;BME280;10709;49.006;12.100;2023-02-23T07:30:08;48975.25;;;-146.00;100.00
21102;BME280;10709;49.006;12.100;2023-02-23T07:32:34;48971.31;;;-146.00;100.00
21102;BME280;10709;49.006;12.100;2023-02-23T07:35:02;48985.03;;;-146.00;100.00
21102;BME280;10709;49.006;12.100;2023-02-23T07:37:28;48969.38;;;-146.00;100.00
21102;BME280;10709;49.006;12.100;2023-02-23T07:39:55;48973.28;;;-146.00;100.00
21102;BME280;10709;49.006;12.100;2023-02-23T07:42:21;48977.19;;;-146.00;100.00
21102;BME280;10709;49.006;12.100;2023-02-23T07:44:47;48985.03;;;-146.00;100.00
21102;BME280;10709;49.006;12.100;2023-02-23T07:47:14;48977.19;;;-146.00;100.00
21102;BME280;10709;49.006;12.100;2023-02-23T07:49:41;48977.19;;;-146.00;100.00
21102;BME280;10709;49.006;12.100;2023-02-23T07:52:08;48983.06;;;-146.00;100.00
21102;BME280;10709;49.006;12.100;2023-02-23T07:54:34;48975.25;;;-146.00;100.00
21102;BME280;10709;49.006;12.100;2023-02-23T07:57:01;48969.38;;;-146.00;100.00
21102;BME280;10709;49.006;12.100;2023-02-23T07:59:27;48977.19;;;-146.00;100.00
21102;BME280;10709;49.006;12.100;2023-02-23T08:01:54;48977.19;;;-146.00;100.00
21102;BME280;10709;49.006;12.100;2023-02-23T08:04:20;48983.06;;;-146.00;100.00
21102;BME280;10709;49.006;12.100;2023-02-23T08:06:47;48965.44;;;-146.00;100.00
21102;BME280;10709;49.006;12.100;2023-02-23T08:09:13;48969.38;;;-146.00;100.00
21102;BME280;10709;49.006;12.100;2023-02-23T08:11:39;48961.53;;;-146.00;100.00
21102;BME280;10709;49.006;12.100;2023-02-23T08:14:06;48973.28;;;-146.00;100.00
21102;BME280;10709;49.006;12.100;2023-02-23T08:16:32;48957.59;;;-146.00;100.00
21102;BME280;10709;49.006;12.100;2023-02-23T08:19:00;48949.78;;;-146.00;100.00
21102;BME280;10709;49.006;12.100;2023-02-23T08:21:27;48957.59;;;-146.00;100.00
21102;BME280;10709;49.006;12.100;2023-02-23T08:23:56;48953.69;;;-146.00;100.00
21102;BME280;10709;49.006;12.100;2023-02-23T08:26:22;48945.84;;;-146.00;100.00
21102;BME280;10709;49.006;12.100;2023-02-23T08:28:51;48953.69;;;-146.00;100.00
21102;BME280;10709;49.006;12.100;2023-02-23T08:31:18;48953.69;;;-146.00;100.00
21102;BME280;10709;49.006;12.100;2023-02-23T08:33:50;48949.78;;;-146.00;100.00
21102;BME280;10709;49.006;12.100;2023-02-23T08:36:17;48973.28;;;-146.00;100.00
21102;BME280;10709;49.006;12.100;2023-02-23T08:38:43;48981.13;;;-146.00;100.00
21102;BME280;10709;49.006;12.100;2023-02-23T08:41:10;48955.66;;;-146.00;100.00
21102;BME280;10709;49.006;12.100;2023-02-23T08:43:36;48961.53;;;-146.00;100.00
21102;BME280;10709;49.006;12.100;2023-02-23T08:46:05;48967.41;;;-146.00;100.00
21102;BME280;10709;49.006;12.100;2023-02-23T08:48:32;48969.38;;;-146.00;100.00
21102;BME280;10709;49.006;12.100;2023-02-23T08:50:59;48949.78;;;-146.00;100.00
21102;BME280;10709;49.006;12.100;2023-02-23T08:53:26;48955.66;;;-146.00;100.00
21102;BME280;10709;49.006;12.100;2023-02-23T08:55:56;48959.56;;;-146.00;100.00
21102;BME280;10709;49.006;12.100;2023-02-23T08:58:23;48959.56;;;-146.00;100.00
21102;BME280;10709;49.006;12.100;2023-02-23T09:00:49;48953.69;;;-146.00;100.00
21102;BME280;10709;49.006;12.100;2023-02-23T09:03:15;48945.84;;;-146.00;100.00
21102;BME280;10709;49.006;12.100;2023-02-23T09:05:42;48949.78;;;-146.00;100.00
21102;BME280;10709;49.006;12.100;2023-02-23T09:08:10;48957.59;;;-146.00;100.00
21102;BME280;10709;49.006;12.100;2023-02-23T09:10:37;48953.69;;;-146.00;100.00
21102;BME280;10709;49.006;12.100;2023-02-23T09:13:04;48953.69;;;-146.00;100.00
21102;BME280;10709;49.006;12.100;2023-02-23T09:15:31;48973.28;;;-146.00;100.00
21102;BME280;10709;49.006;12.100;2023-02-23T09:18:00;48965.44;;;-146.00;100.00
21102;BME280;10709;49.006;12.100;2023-02-23T09:20:27;48973.28;;;-146.00;100.00
21102;BME280;10709;49.006;12.100;2023-02-23T09:22:54;48981.13;;;-146.00;100.00
21102;BME280;10709;49.006;12.100;2023-02-23T09:25:21;48965.44;;;-146.00;100.00
21102;BME280;10709;49.006;12.100;2023-02-23T09:27:52;48971.31;;;-146.00;100.00
21102;BME280;10709;49.006;12.100;2023-02-23T09:30:21;48967.41;;;-146.00;100.00
21102;BME280;10709;49.006;12.100;2023-02-23T09:32:50;48957.59;;;-146.00;100.00
21102;BME280;10709;49.006;12.100;2023-02-23T09:35:18;48977.19;;;-146.00;100.00
21102;BME280;10709;49.006;12.100;2023-02-23T09:37:49;48992.88;;;-146.00;100.00
21102;BME280;10709;49.006;12.100;2023-02-23T09:40:19;48965.44;;;-146.00;100.00
21102;BME280;10709;49.006;12.100;2023-02-23T09:45:35;48969.38;;;-146.00;100.00
21102;BME280;10709;49.006;12.100;2023-02-23T09:50:31;48985.03;;;-146.00;100.00
21102;BME280;10709;49.006;12.100;2023-02-23T09:53:04;48985.03;;;-146.00;100.00
21102;BME280;10709;49.006;12.100;2023-02-23T09:55:32;48973.28;;;-146.00;100.00
21102;BME280;10709;49.006;12.100;2023-02-23T09:58:06;48985.03;;;-146.00;100.00
21102;BME280;10709;49.006;12.100;2023-02-23T10:00:40;48977.19;;;-146.00;100.00
21102;BME280;10709;49.006;12.100;2023-02-23T10:03:31;48988.94;;;-146.00;100.00
21102;BME280;10709;49.006;12.100;2023-02-23T10:06:02;48981.13;;;-146.00;100.00
21102;BME280;10709;49.006;12.100;2023-02-23T10:14:06;48985.03;;;-146.00;100.00
21102;BME280;10709;49.006;12.100;2023-02-23T10:19:34;48992.88;;;-146.00;100.00
21102;BME280;10709;49.006;12.100;2023-02-23T10:22:06;48988.94;;;-146.00;100.00
21102;BME280;10709;49.006;12.100;2023-02-23T10:24:56;48996.78;;;-146.00;100.00
21102;BME280;10709;49.006;12.100;2023-02-23T10:27:31;48990.91;;;-146.00;100.00
21102;BME280;10709;49.006;12.100;2023-02-23T10:30:03;48985.03;;;-146.00;100.00
21102;BME280;10709;49.006;12.100;2023-02-23T10:32:41;48996.78;;;-146.00;100.00
21102;BME280;10709;49.006;12.100;2023-02-23T10:35:14;49004.63;;;-146.00;100.00
21102;BME280;10709;49.006;12.100;2023-02-23T10:37:41;48987.00;;;-146.00;100.00
21102;BME280;10709;49.006;12.100;2023-02-23T10:40:17;48985.03;;;-146.00;100.00
21102;BME280;10709;49.006;12.100;2023-02-23T10:42:43;48987.00;;;-146.00;100.00
21102;BME280;10709;49.006;12.100;2023-02-23T10:45:18;48987.00;;;-146.00;100.00
21102;BME280;10709;49.006;12.100;2023-02-23T10:48:02;48996.78;;;-146.00;100.00
21102;BME280;10709;49.006;12.100;2023-02-23T10:50:31;49008.53;;;-146.00;100.00
21102;BME280;10709;49.006;12.100;2023-02-23T10:53:03;48988.94;;;-146.00;100.00
21102;BME280;10709;49.006;12.100;2023-02-23T10:55:35;49012.47;;;-146.00;100.00
21102;BME280;10709;49.006;12.100;2023-02-23T11:00:30;49012.47;;;-146.00;100.00
21102;BME280;10709;49.006;12.100;2023-02-23T11:03:00;48992.88;;;-146.00;100.00
21102;BME280;10709;49.006;12.100;2023-02-23T11:05:54;48988.94;;;-146.00;100.00
21102;BME280;10709;49.006;12.100;2023-02-23T11:08:24;49000.72;;;-146.00;100.00
21102;BME280;10709;49.006;12.100;2023-02-23T11:13:39;48992.88;;;-146.00;100.00
21102;BME280;10709;49.006;12.100;2023-02-23T11:16:09;49008.53;;;-146.00;100.00
21102;BME280;10709;49.006;12.100;2023-02-23T11:18:37;49008.53;;;-146.00;100.00
21102;BME280;10709;49.006;12.100;2023-02-23T11:21:11;49008.53;;;-146.00;100.00
21102;BME280;10709;49.006;12.100;2023-02-23T11:23:39;49002.66;;;-146.00;100.00
21102;BME280;10709;49.006;12.100;2023-02-23T11:26:20;49016.38;;;-146.00;100.00
21102;BME280;10709;49.006;12.100;2023-02-23T11:28:51;49020.31;;;-146.00;100.00
21102;BME280;10709;49.006;12.100;2023-02-23T11:31:21;49012.47;;;-146.00;100.00
21102;BME280;10709;49.006;12.100;2023-02-23T11:33:49;49002.66;;;-146.00;100.00
21102;BME280;10709;49.006;12.100;2023-02-23T11:39:01;49000.72;;;-146.00;100.00
21102;BME280;10709;49.006;12.100;2023-02-23T11:41:28;49012.47;;;-146.00;100.00
21102;BME280;10709;49.006;12.100;2023-02-23T11:43:59;49020.31;;;-146.00;100.00
21102;BME280;10709;49.006;12.100;2023-02-23T11:46:34;49016.38;;;-146.00;100.00
21102;BME280;10709;49.006;12.100;2023-02-23T11:49:05;49016.38;;;-146.00;100.00
21102;BME280;10709;49.006;12.100;2023-02-23T11:51:35;49037.94;;;-146.00;100.00
21102;BME280;10709;49.006;12.100;2023-02-23T11:54:03;49012.47;;;-146.00;99.87
21102;BME280;10709;49.006;12.100;2023-02-23T11:56:32;48994.84;;;-146.00;100.00
21102;BME280;10709;49.006;12.100;2023-02-23T11:59:06;49028.13;;;-146.00;99.37
21102;BME280;10709;49.006;12.100;2023-02-23T12:01:41;49026.19;;;-146.00;99.32
21102;BME280;10709;49.006;12.100;2023-02-23T12:06:49;49026.19;;;-146.00;98.55
21102;BME280;10709;49.006;12.100;2023-02-23T12:09:24;49032.06;;;-146.00;98.75
21102;BME280;10709;49.006;12.100;2023-02-23T12:12:02;49024.22;;;-146.00;98.82
21102;BME280;10709;49.006;12.100;2023-02-23T12:17:12;49035.97;;;-146.00;98.71
21102;BME280;10709;49.006;12.100;2023-02-23T12:19:48;49026.19;;;-146.00;98.14
21102;BME280;10709;49.006;12.100;2023-02-23T12:22:19;49024.22;;;-146.00;97.95
21102;BME280;10709;49.006;12.100;2023-02-23T12:24:59;49020.31;;;-146.00;98.74
21102;BME280;10709;49.006;12.100;2023-02-23T12:27:38;49034.00;;;-146.00;98.57
21102;BME280;10709;49.006;12.100;2023-02-23T12:32:58;49035.97;;;-146.00;98.19
21102;BME280;10709;49.006;12.100;2023-02-23T12:35:41;49012.47;;;-146.00;98.77
21102;BME280;10709;49.006;12.100;2023-02-23T12:38:27;49024.22;;;-146.00;98.22
21102;BME280;10709;49.006;12.100;2023-02-23T12:41:10;49024.22;;;-146.00;97.18
21102;BME280;10709;49.006;12.100;2023-02-23T12:43:52;49047.72;;;-146.00;95.67
21102;BME280;10709;49.006;12.100;2023-02-23T12:46:24;49051.66;;;-146.00;96.30
21102;BME280;10709;49.006;12.100;2023-02-23T12:49:12;49039.88;;;-146.00;95.52
21102;BME280;10709;49.006;12.100;2023-02-23T12:51:48;49032.06;;;-146.00;95.71
21102;BME280;10709;49.006;12.100;2023-02-23T12:54:17;49045.78;;;-146.00;96.35
21102;BME280;10709;49.006;12.100;2023-02-23T12:56:54;49055.56;;;-146.00;96.00
21102;BME280;10709;49.006;12.100;2023-02-23T13:02:13;49045.78;;;-146.00;94.89
21102;BME280;10709;49.006;12.100;2023-02-23T13:07:20;49039.88;;;-146.00;95.58
21102;BME280;10709;49.006;12.100;2023-02-23T13:10:28;49047.72;;;-146.00;95.77
21102;BME280;10709;49.006;12.100;2023-02-23T13:13:07;49055.56;;;-146.00;95.74
21102;BME280;10709;49.006;12.100;2023-02-23T13:15:51;49035.97;;;-146.00;96.48
21102;BME280;10709;49.006;12.100;2023-02-23T13:18:28;49055.56;;;-146.00;95.23
21102;BME280;10709;49.006;12.100;2023-02-23T13:21:07;49049.69;;;-146.00;94.85
21102;BME280;10709;49.006;12.100;2023-02-23T13:23:40;49055.56;;;-146.00;94.71
21102;BME280;10709;49.006;12.100;2023-02-23T13:29:11;49032.06;;;-146.00;94.85
21102;BME280;10709;49.006;12.100;2023-02-23T13:31:42;49059.47;;;-146.00;94.78
21102;BME280;10709;49.006;12.100;2023-02-23T13:34:12;49047.72;;;-146.00;94.86
21102;BME280;10709;49.006;12.100;2023-02-23T13:36:43;49059.47;;;-146.00;95.17
21102;BME280;10709;49.006;12.100;2023-02-23T13:46:11;49047.72;;;-146.00;94.08
21102;BME280;10709;49.006;12.100;2023-02-23T13:48:40;49047.72;;;-146.00;93.96
21102;BME280;10709;49.006;12.100;2023-02-23T13:51:44;49071.25;;;-146.00;94.61